Time;durP1;ratioP1;P1;durP2;ratioP2;P2;SDS_P1;SDS_P2;PMS_P1;PMS_P2;Temp;Humidity;BMP_temperature;BMP_pressure;BME280_temperature;BME280_humidity;BME280_pressure;Samples;Min_cycle;Max_cycle;Signal;HPM_P1;HPM_P2
2022/12/27 00:00:06;;;;;;;4.72;1.23;;;4.70;99.90;;;;;;5049613;28;20099;-48
2022/12/27 00:02:39;;;;;;;4.85;1.40;;;4.70;99.90;;;;;;5033918;28;20056;-51
2022/12/27 00:05:06;;;;;;;7.00;1.67;;;4.70;99.90;;;;;;5036164;28;20091;-51
2022/12/27 00:07:32;;;;;;;4.68;1.15;;;4.70;99.90;;;;;;5038713;28;20112;-52
2022/12/27 00:09:59;;;;;;;7.28;1.40;;;4.60;99.90;;;;;;5032058;28;20103;-49
2022/12/27 00:12:26;;;;;;;9.63;1.60;;;4.60;99.90;;;;;;5033447;28;20041;-52
2022/12/27 00:14:52;;;;;;;5.90;1.25;;;4.60;99.90;;;;;;5042056;28;20045;-53
2022/12/27 00:17:19;;;;;;;6.15;1.27;;;4.60;99.90;;;;;;5053081;28;20041;-55
2022/12/27 00:19:46;;;;;;;8.80;1.85;;;4.60;99.90;;;;;;5053893;28;20053;-53
2022/12/27 00:22:13;;;;;;;8.95;1.45;;;4.60;99.90;;;;;;5050456;28;20040;-55
2022/12/27 00:24:39;;;;;;;8.15;1.58;;;4.60;99.90;;;;;;5041110;28;20034;-53
2022/12/27 00:27:06;;;;;;;6.57;1.42;;;4.50;99.90;;;;;;5043757;28;20462;-54
2022/12/27 00:29:33;;;;;;;11.73;1.98;;;4.50;99.90;;;;;;5053924;28;20037;-53
2022/12/27 00:32:00;;;;;;;9.30;1.40;;;4.50;99.90;;;;;;5038290;28;20041;-53
2022/12/27 00:34:27;;;;;;;4.57;1.50;;;4.50;99.90;;;;;;5043311;28;20060;-50
2022/12/27 00:36:53;;;;;;;7.85;1.50;;;4.50;99.90;;;;;;5051511;28;20361;-52
2022/12/27 00:39:20;;;;;;;10.68;1.40;;;4.50;99.90;;;;;;5042302;28;20092;-53
2022/12/27 00:41:47;;;;;;;7.65;1.77;;;4.50;99.90;;;;;;5034087;28;20049;-51
2022/12/27 00:44:14;;;;;;;5.28;1.75;;;4.50;99.90;;;;;;5044128;28;20052;-52
2022/12/27 00:46:41;;;;;;;9.38;1.70;;;4.50;99.90;;;;;;5033982;28;20041;-51
2022/12/27 00:49:07;;;;;;;8.55;1.60;;;4.50;99.90;;;;;;5047309;28;20102;-54
2022/12/27 00:51:34;;;;;;;10.32;1.95;;;4.50;99.90;;;;;;5052952;28;20045;-50
2022/12/27 00:54:01;;;;;;;9.07;1.85;;;4.40;99.90;;;;;;5049772;28;20098;-49
2022/12/27 00:56:28;;;;;;;8.73;1.58;;;4.40;99.90;;;;;;5044592;28;20092;-52
2022/12/27 00:58:54;;;;;;;8.57;1.63;;;4.40;99.90;;;;;;5033404;28;20037;-50
2022/12/27 01:01:21;;;;;;;6.63;2.10;;;4.40;99.90;;;;;;5033060;28;20048;-47
2022/12/27 01:03:48;;;;;;;5.97;1.40;;;4.40;99.90;;;;;;5034204;28;20471;-53
2022/12/27 01:06:15;;;;;;;5.22;1.65;;;4.40;99.90;;;;;;5032707;28;20056;-48
2022/12/27 01:08:42;;;;;;;7.53;1.80;;;4.40;99.90;;;;;;5033273;28;20037;-52
2022/12/27 01:11:09;;;;;;;6.90;1.50;;;4.50;99.90;;;;;;5032462;28;20049;-48
2022/12/27 01:13:35;;;;;;;4.35;1.45;;;4.40;99.90;;;;;;5032725;28;20041;-50
2022/12/27 01:16:02;;;;;;;5.03;1.30;;;4.40;99.90;;;;;;5047273;28;20081;-49
2022/12/27 01:18:29;;;;;;;7.43;2.20;;;4.40;99.90;;;;;;5052516;28;20056;-53
2022/12/27 01:20:56;;;;;;;9.68;1.35;;;4.40;99.90;;;;;;5037879;28;20045;-49
2022/12/27 01:23:24;;;;;;;5.60;1.60;;;4.40;99.90;;;;;;5034627;28;20107;-51
2022/12/27 01:25:51;;;;;;;6.10;1.58;;;4.40;99.90;;;;;;5033488;28;20492;-54
2022/12/27 01:28:18;;;;;;;6.90;1.60;;;4.40;99.90;;;;;;5049804;28;20491;-53
2022/12/27 01:30:45;;;;;;;9.60;1.80;;;4.40;99.90;;;;;;5055927;28;20041;-50
2022/12/27 01:33:11;;;;;;;5.95;1.20;;;4.40;99.90;;;;;;5036790;28;20041;-51
2022/12/27 01:35:38;;;;;;;5.45;1.20;;;4.40;99.90;;;;;;5036305;28;20073;-54
2022/12/27 01:38:05;;;;;;;6.05;1.50;;;4.40;99.90;;;;;;5036353;28;20041;-49
2022/12/27 01:40:32;;;;;;;9.88;1.92;;;4.40;99.90;;;;;;5035352;28;20045;-48
2022/12/27 01:42:58;;;;;;;7.75;1.80;;;4.40;99.90;;;;;;5035279;28;20053;-52
2022/12/27 01:45:25;;;;;;;8.45;1.70;;;4.40;99.90;;;;;;5035983;28;20045;-48
2022/12/27 01:47:52;;;;;;;4.95;1.50;;;4.40;99.90;;;;;;5035730;28;20460;-46
2022/12/27 01:50:19;;;;;;;4.78;1.90;;;4.40;99.90;;;;;;5035949;28;20037;-50
2022/12/27 01:52:45;;;;;;;7.35;1.67;;;4.40;99.90;;;;;;5036368;28;20045;-47
2022/12/27 01:55:12;;;;;;;5.70;1.58;;;4.40;99.90;;;;;;5051919;28;20037;-49
2022/12/27 01:57:39;;;;;;;6.90;1.58;;;4.40;99.90;;;;;;5056075;28;20037;-53
2022/12/27 02:00:06;;;;;;;6.53;1.25;;;4.40;99.90;;;;;;5049428;28;20045;-49
2022/12/27 02:02:34;;;;;;;6.22;1.50;;;4.40;99.90;;;;;;5035471;28;20054;-54
2022/12/27 02:05:01;;;;;;;9.27;1.80;;;4.40;99.90;;;;;;5035764;28;20045;-53
2022/12/27 02:07:27;;;;;;;7.35;1.38;;;4.40;99.90;;;;;;5049623;28;20037;-52
2022/12/27 02:09:54;;;;;;;6.75;1.27;;;4.40;99.90;;;;;;5035581;28;20464;-56
2022/12/27 02:12:21;;;;;;;7.20;2.45;;;4.40;99.90;;;;;;5035399;28;20453;-53
2022/12/27 02:14:51;;;;;;;8.55;1.55;;;4.40;99.90;;;;;;5041727;28;20048;-51
2022/12/27 02:17:17;;;;;;;9.75;1.60;;;4.40;99.90;;;;;;5048856;28;20086;-52
2022/12/27 02:19:44;;;;;;;9.13;1.40;;;4.40;99.90;;;;;;5055453;28;20420;-48
2022/12/27 02:22:11;;;;;;;10.43;1.60;;;4.30;99.90;;;;;;5055347;28;20069;-52
2022/12/27 02:24:38;;;;;;;8.57;1.60;;;4.30;99.90;;;;;;5055101;28;20056;-52
2022/12/27 02:27:05;;;;;;;8.82;1.60;;;4.30;99.90;;;;;;5054260;28;20076;-54
2022/12/27 02:29:32;;;;;;;7.32;1.40;;;4.30;99.90;;;;;;5055343;28;20052;-52
2022/12/27 02:31:59;;;;;;;7.00;1.50;;;4.20;99.90;;;;;;5040690;28;20041;-50
2022/12/27 02:34:25;;;;;;;10.98;1.55;;;4.20;99.90;;;;;;5034352;28;20412;-55
2022/12/27 02:36:52;;;;;;;11.20;1.60;;;4.20;99.90;;;;;;5039692;28;20049;-54
2022/12/27 02:39:19;;;;;;;6.22;1.38;;;4.20;99.90;;;;;;5054944;28;20068;-50
2022/12/27 02:53:03;;;;;;;8.65;1.50;;;4.10;99.90;;;;;;5054595;28;20481;-48
2022/12/27 02:55:30;;;;;;;6.25;1.40;;;4.10;99.90;;;;;;5054588;28;20037;-47
2022/12/27 02:57:56;;;;;;;7.65;1.60;;;4.10;99.90;;;;;;5053897;28;20037;-47
2022/12/27 03:03:22;;;;;;;8.38;1.27;;;4.00;99.90;;;;;;5046966;28;20041;-51
2022/12/27 03:06:38;;;;;;;9.07;1.80;;;4.00;99.90;;;;;;5054497;28;20417;-48
2022/12/27 03:08:36;;;;;;;6.65;1.63;;;4.00;99.90;;;;;;5036147;28;20060;-48
2022/12/27 03:16:36;;;;;;;5.63;1.40;;;4.00;99.90;;;;;;5045279;28;20293;-52
2022/12/27 03:19:04;;;;;;;9.57;1.40;;;4.00;99.90;;;;;;5042578;28;20053;-55
2022/12/27 03:27:02;;;;;;;7.18;1.80;;;4.00;99.90;;;;;;5052611;28;20055;-55
2022/12/27 03:35:01;;;;;;;10.60;2.00;;;4.00;99.90;;;;;;5047890;28;20111;-48
2022/12/27 03:40:13;;;;;;;8.15;1.60;;;3.90;99.90;;;;;;5054055;28;20029;-53
2022/12/27 03:46:32;;;;;;;8.80;1.33;;;3.90;99.90;;;;;;5035821;28;20443;-51
2022/12/27 03:48:13;;;;;;;11.32;1.70;;;3.90;99.90;;;;;;5047124;28;20041;-52
2022/12/27 03:50:39;;;;;;;6.85;1.73;;;3.90;99.90;;;;;;5053425;28;20579;-52
2022/12/27 03:53:06;;;;;;;7.43;1.30;;;3.90;99.90;;;;;;5046318;28;20046;-53
2022/12/27 03:55:34;;;;;;;10.02;1.40;;;3.90;99.90;;;;;;5053587;28;20041;-53
2022/12/27 03:58:00;;;;;;;6.40;1.30;;;3.90;99.90;;;;;;5052389;28;20106;-55
2022/12/27 04:00:27;;;;;;;8.77;1.52;;;3.90;99.90;;;;;;5035566;28;20594;-53
2022/12/27 04:02:54;;;;;;;5.63;1.40;;;3.90;99.90;;;;;;5049510;28;20041;-48
2022/12/27 04:05:21;;;;;;;8.35;1.58;;;3.80;99.90;;;;;;5034994;28;20311;-49
2022/12/27 04:35:24;;;;;;;8.80;1.70;;;3.70;99.90;;;;;;5053279;28;20048;-52
2022/12/27 04:37:50;;;;;;;5.00;1.42;;;3.70;99.90;;;;;;5041155;28;20212;-53
2022/12/27 04:56:49;;;;;;;9.40;1.60;;;3.70;99.90;;;;;;5053012;28;20051;-51
2022/12/27 05:02:02;;;;;;;6.35;1.40;;;3.70;99.90;;;;;;5047077;28;20057;-49
2022/12/27 05:04:29;;;;;;;7.97;1.38;;;3.70;99.90;;;;;;5036872;28;20489;-49
2022/12/27 05:06:56;;;;;;;7.50;1.48;;;3.70;99.90;;;;;;5036718;28;20080;-49
2022/12/27 05:14:54;;;;;;;6.38;1.25;;;3.70;99.90;;;;;;5049919;28;20045;-51
2022/12/27 05:17:20;;;;;;;7.88;1.23;;;3.60;99.90;;;;;;5056848;28;20100;-51
2022/12/27 05:19:47;;;;;;;8.82;1.75;;;3.60;99.90;;;;;;5055395;28;20053;-50
2022/12/27 05:27:45;;;;;;;8.90;1.42;;;3.60;99.90;;;;;;5056409;28;20048;-48
2022/12/27 05:30:11;;;;;;;8.25;1.60;;;3.60;99.90;;;;;;5055969;28;20113;-53
2022/12/27 05:32:38;;;;;;;7.50;1.30;;;3.60;99.90;;;;;;5043753;28;20041;-51
2022/12/27 05:35:05;;;;;;;3.75;1.33;;;3.60;99.90;;;;;;5036195;28;20057;-48
2022/12/27 05:37:32;;;;;;;6.35;1.27;;;3.60;99.90;;;;;;5036302;28;20044;-55
2022/12/27 05:39:58;;;;;;;4.35;1.10;;;3.60;99.90;;;;;;5040288;28;20036;-54
2022/12/27 05:42:25;;;;;;;5.00;1.55;;;3.60;99.90;;;;;;5041408;28;20527;-53
2022/12/27 05:44:52;;;;;;;4.82;1.30;;;3.60;99.90;;;;;;5039256;28;20049;-53
2022/12/27 05:47:18;;;;;;;9.50;1.60;;;3.60;99.90;;;;;;5041616;28;20050;-53
2022/12/27 05:49:45;;;;;;;8.10;1.50;;;3.70;99.90;;;;;;5047076;28;20531;-50
2022/12/27 05:52:12;;;;;;;5.18;1.40;;;3.60;99.90;;;;;;5044545;28;20029;-53
2022/12/27 05:54:39;;;;;;;8.02;1.60;;;3.70;99.90;;;;;;5047349;28;20036;-52
2022/12/27 05:57:08;;;;;;;8.68;1.60;;;3.70;99.90;;;;;;5055668;28;20392;-50
2022/12/27 05:59:35;;;;;;;7.10;1.58;;;3.70;99.90;;;;;;5055788;28;20075;-51
2022/12/27 06:02:02;;;;;;;4.20;1.10;;;3.70;99.90;;;;;;5040562;28;20091;-54
2022/12/27 06:04:29;;;;;;;5.47;1.02;;;3.80;99.90;;;;;;5043387;28;20051;-54
2022/12/27 06:06:55;;;;;;;5.40;2.40;;;3.80;99.90;;;;;;5051953;28;20058;-53
2022/12/27 06:09:22;;;;;;;6.93;2.17;;;3.80;99.90;;;;;;5054691;28;20435;-55
2022/12/27 06:11:50;;;;;;;6.63;1.80;;;3.80;99.90;;;;;;5049305;28;20080;-53
2022/12/27 06:14:18;;;;;;;6.07;1.67;;;3.90;99.90;;;;;;5050673;28;20056;-55
2022/12/27 06:16:45;;;;;;;4.97;1.10;;;3.90;99.90;;;;;;5055126;28;20075;-55
2022/12/27 06:19:11;;;;;;;7.90;1.40;;;4.00;99.90;;;;;;5055033;28;20560;-50
2022/12/27 06:21:38;;;;;;;6.07;1.30;;;4.10;99.90;;;;;;5050822;28;20045;-55
2022/12/27 06:24:05;;;;;;;5.05;1.10;;;4.10;99.90;;;;;;5044344;28;20047;-55
2022/12/27 06:26:32;;;;;;;7.15;1.35;;;4.20;99.90;;;;;;5039353;28;20107;-48
2022/12/27 06:28:58;;;;;;;7.03;1.20;;;4.30;99.90;;;;;;5036962;28;20053;-48
2022/12/27 06:31:25;;;;;;;6.78;1.25;;;4.40;99.90;;;;;;5035363;28;20493;-48
2022/12/27 06:33:52;;;;;;;8.82;1.40;;;4.40;99.90;;;;;;5043515;28;20068;-47
2022/12/27 06:36:19;;;;;;;5.97;1.27;;;4.50;99.90;;;;;;5038479;28;20041;-54
2022/12/27 06:38:46;;;;;;;8.48;1.73;;;4.50;99.90;;;;;;5054831;28;20041;-53
2022/12/27 06:41:12;;;;;;;6.07;1.35;;;4.60;99.90;;;;;;5051450;28;20049;-52
2022/12/27 06:43:39;;;;;;;9.43;1.35;;;4.70;99.90;;;;;;5043449;28;20385;-55
2022/12/27 06:46:06;;;;;;;6.07;1.30;;;4.70;99.90;;;;;;5046777;28;20041;-54
2022/12/27 06:48:36;;;;;;;9.30;1.45;;;4.80;99.90;;;;;;5041616;28;20044;-54
2022/12/27 06:51:03;;;;;;;5.20;1.10;;;4.80;99.90;;;;;;5039583;28;20099;-54
2022/12/27 06:53:30;;;;;;;7.03;1.42;;;4.90;99.90;;;;;;5036551;28;20091;-52
2022/12/27 06:55:56;;;;;;;10.85;2.00;;;4.90;99.90;;;;;;5054446;28;20052;-50
2022/12/27 06:58:23;;;;;;;5.32;1.23;;;4.90;99.90;;;;;;5043223;28;20084;-50
2022/12/27 07:00:50;;;;;;;6.80;1.40;;;5.00;99.90;;;;;;5046893;28;20135;-52
2022/12/27 07:03:17;;;;;;;7.50;1.27;;;5.00;99.90;;;;;;5045032;28;20117;-53
2022/12/27 07:05:43;;;;;;;7.10;1.65;;;5.10;99.90;;;;;;5037026;28;20048;-51
2022/12/27 07:08:10;;;;;;;7.85;1.60;;;5.10;99.90;;;;;;5035657;28;20096;-51
2022/12/27 07:10:37;;;;;;;6.38;1.20;;;5.10;99.90;;;;;;5042969;28;20373;-52
2022/12/27 07:13:03;;;;;;;7.25;1.52;;;5.20;99.90;;;;;;5036666;28;20053;-51
2022/12/27 07:15:30;;;;;;;8.35;1.20;;;5.10;99.90;;;;;;5048035;28;20136;-50
2022/12/27 07:17:57;;;;;;;6.50;1.00;;;5.20;99.90;;;;;;5036377;28;20049;-51
2022/12/27 07:20:24;;;;;;;8.23;1.52;;;5.20;99.90;;;;;;5044179;28;20037;-52
2022/12/27 07:22:50;;;;;;;10.95;1.77;;;5.20;99.90;;;;;;5042523;28;20068;-50
2022/12/27 07:25:17;;;;;;;11.18;1.60;;;5.30;99.90;;;;;;5039169;28;20499;-50
2022/12/27 07:27:44;;;;;;;8.30;1.58;;;5.30;99.90;;;;;;5040754;28;20542;-52
2022/12/27 07:30:11;;;;;;;12.70;2.00;;;5.40;99.90;;;;;;5039017;28;20049;-51
2022/12/27 07:32:38;;;;;;;11.50;1.40;;;5.40;99.90;;;;;;5036045;28;20066;-54
2022/12/27 07:35:05;;;;;;;7.40;1.20;;;5.40;99.90;;;;;;5053822;28;20041;-55
2022/12/27 07:37:31;;;;;;;9.00;1.38;;;5.40;99.90;;;;;;5038314;28;20084;-48
2022/12/27 07:39:58;;;;;;;10.73;1.63;;;5.50;99.90;;;;;;5041760;28;20052;-50
2022/12/27 07:42:25;;;;;;;11.30;1.65;;;5.50;99.90;;;;;;5046733;28;20106;-53
2022/12/27 07:44:52;;;;;;;4.97;1.10;;;5.50;99.90;;;;;;5052197;28;20095;-49
2022/12/27 07:47:18;;;;;;;8.52;1.10;;;5.60;99.90;;;;;;5039971;28;20111;-50
2022/12/27 07:49:45;;;;;;;9.15;1.95;;;5.60;99.90;;;;;;5033909;28;20053;-49
2022/12/27 07:52:12;;;;;;;7.68;1.15;;;5.60;99.90;;;;;;5041472;28;20094;-54
2022/12/27 07:54:39;;;;;;;9.52;1.45;;;5.70;99.90;;;;;;5045537;28;20037;-53
2022/12/27 07:57:05;;;;;;;9.07;1.77;;;5.70;99.90;;;;;;5048197;28;20059;-51
2022/12/27 07:59:32;;;;;;;9.82;1.73;;;5.70;99.90;;;;;;5037659;28;20162;-52
2022/12/27 08:02:05;;;;;;;9.25;1.63;;;5.70;99.90;;;;;;5037116;28;20071;-52
2022/12/27 08:04:33;;;;;;;10.30;1.17;;;5.70;99.90;;;;;;5039912;28;20076;-52
2022/12/27 08:07:01;;;;;;;5.68;1.15;;;5.80;99.90;;;;;;5034656;28;20061;-55
2022/12/27 08:09:28;;;;;;;13.07;1.73;;;5.80;99.90;;;;;;5045446;28;20041;-53
2022/12/27 08:11:55;;;;;;;8.82;1.95;;;5.80;99.90;;;;;;5038420;28;20425;-54
2022/12/27 08:14:23;;;;;;;9.75;1.50;;;5.80;99.90;;;;;;5033946;28;20068;-52
2022/12/27 08:16:50;;;;;;;11.23;1.45;;;5.90;99.90;;;;;;5037643;28;20049;-53
2022/12/27 08:19:17;;;;;;;6.22;1.33;;;5.90;99.90;;;;;;5048622;28;20051;-52
2022/12/27 08:21:43;;;;;;;10.85;1.40;;;5.90;99.90;;;;;;5036715;28;20049;-50
2022/12/27 08:24:10;;;;;;;8.85;1.80;;;5.90;99.90;;;;;;5047628;28;20048;-53
2022/12/27 08:26:37;;;;;;;5.57;1.15;;;5.90;99.90;;;;;;5041078;28;20102;-51
2022/12/27 08:29:03;;;;;;;7.18;1.40;;;5.90;99.90;;;;;;5053404;28;20452;-52
2022/12/27 08:31:30;;;;;;;6.93;1.42;;;5.90;99.90;;;;;;5043137;28;20451;-51
2022/12/27 08:33:57;;;;;;;8.43;1.90;;;5.90;99.90;;;;;;5032202;28;20136;-52
2022/12/27 08:36:24;;;;;;;6.97;1.35;;;5.90;99.90;;;;;;5038557;28;20040;-51
2022/12/27 08:39:11;;;;;;;10.00;1.70;;;6.00;99.90;;;;;;5034686;28;20116;-59
2022/12/27 08:41:38;;;;;;;7.68;1.67;;;6.00;99.90;;;;;;5037816;28;20064;-48
2022/12/27 08:44:05;;;;;;;14.07;1.80;;;6.00;99.90;;;;;;5040568;28;20041;-50
2022/12/27 08:46:31;;;;;;;9.35;1.45;;;6.00;99.90;;;;;;5033556;28;20048;-55
2022/12/27 08:48:58;;;;;;;11.60;1.48;;;6.00;99.90;;;;;;5038462;28;20041;-51
2022/12/27 08:51:25;;;;;;;11.27;1.77;;;6.10;99.90;;;;;;5042305;28;20038;-54
2022/12/27 08:54:05;;;;;;;10.05;1.58;;;6.10;99.90;;;;;;5052830;28;20044;-54
2022/12/27 08:56:32;;;;;;;10.18;1.48;;;6.10;99.90;;;;;;5041461;28;20405;-52
2022/12/27 08:58:59;;;;;;;6.35;1.38;;;6.10;99.90;;;;;;5043800;28;20044;-52
2022/12/27 09:01:26;;;;;;;8.85;1.10;;;6.10;99.90;;;;;;5040342;28;20051;-51
2022/12/27 09:03:53;;;;;;;8.00;1.23;;;6.10;99.90;;;;;;5036806;28;20048;-53
2022/12/27 09:06:19;;;;;;;11.65;1.65;;;6.20;99.90;;;;;;5045578;28;20056;-52
2022/12/27 09:08:46;;;;;;;12.18;1.33;;;6.20;99.90;;;;;;5049919;28;20107;-52
2022/12/27 09:11:13;;;;;;;10.40;1.00;;;6.30;99.90;;;;;;5034064;28;20123;-50
2022/12/27 09:13:40;;;;;;;13.57;1.80;;;6.30;99.90;;;;;;5037819;28;20041;-54
2022/12/27 09:16:06;;;;;;;12.30;1.48;;;6.40;99.90;;;;;;5035893;28;20037;-51
2022/12/27 09:18:33;;;;;;;10.40;1.40;;;6.40;99.90;;;;;;5040726;28;20057;-53
2022/12/27 09:21:00;;;;;;;10.20;1.45;;;6.50;99.90;;;;;;5036938;28;20443;-48
2022/12/27 09:23:27;;;;;;;6.28;1.08;;;6.50;99.90;;;;;;5052256;28;20660;-53
2022/12/27 09:25:53;;;;;;;6.85;1.17;;;6.60;99.90;;;;;;5047858;28;20544;-54
2022/12/27 09:28:20;;;;;;;10.30;1.40;;;6.60;99.90;;;;;;5035734;28;20192;-48
2022/12/27 09:30:47;;;;;;;10.13;1.30;;;6.70;99.90;;;;;;5041096;28;20041;-51
2022/12/27 09:33:14;;;;;;;8.75;1.38;;;6.70;99.90;;;;;;5036569;28;20041;-52
2022/12/27 09:35:41;;;;;;;7.90;2.25;;;6.90;99.90;;;;;;5048714;28;20438;-52
2022/12/27 09:38:07;;;;;;;10.43;1.63;;;6.90;99.90;;;;;;5043879;28;20037;-51
2022/12/27 09:40:34;;;;;;;11.32;1.58;;;7.00;99.90;;;;;;5040385;28;20378;-49
2022/12/27 09:43:01;;;;;;;8.57;1.27;;;7.10;99.90;;;;;;5047598;28;20392;-54
2022/12/27 09:45:44;;;;;;;11.50;2.67;;;7.20;99.90;;;;;;5040521;28;20046;-53
2022/12/27 09:48:11;;;;;;;9.57;1.40;;;7.30;99.90;;;;;;5041126;28;20047;-51
2022/12/27 09:50:38;;;;;;;9.77;1.85;;;7.30;99.90;;;;;;5044350;28;20551;-53
2022/12/27 09:53:05;;;;;;;9.32;1.83;;;7.30;99.90;;;;;;5051374;28;20060;-54
2022/12/27 09:55:32;;;;;;;10.57;1.33;;;7.40;99.90;;;;;;5045545;28;20046;-50
2022/12/27 09:57:58;;;;;;;7.70;1.42;;;7.50;99.90;;;;;;5042779;28;20485;-47
2022/12/27 10:00:25;;;;;;;9.52;1.42;;;7.50;99.90;;;;;;5047938;28;20041;-47
2022/12/27 10:03:01;;;;;;;6.22;1.40;;;7.60;99.90;;;;;;5051644;28;20041;-49
2022/12/27 10:05:27;;;;;;;11.60;1.88;;;7.60;99.90;;;;;;5043953;28;20053;-53
2022/12/27 10:07:54;;;;;;;8.43;1.25;;;7.60;99.90;;;;;;5036799;28;20049;-49
2022/12/27 10:10:21;;;;;;;8.75;1.80;;;7.60;99.90;;;;;;5047482;28;20061;-47
2022/12/27 10:12:48;;;;;;;11.88;1.45;;;7.60;99.90;;;;;;5047728;28;20037;-54
2022/12/27 10:15:14;;;;;;;7.13;1.58;;;7.50;99.90;;;;;;5035579;28;20040;-53
2022/12/27 10:17:41;;;;;;;7.45;1.20;;;7.50;99.90;;;;;;5036149;28;20041;-53
2022/12/27 10:20:12;;;;;;;11.50;1.63;;;7.50;99.90;;;;;;5035437;28;20095;-54
2022/12/27 10:22:39;;;;;;;9.30;1.83;;;7.50;99.90;;;;;;5048591;28;20048;-51
2022/12/27 10:25:06;;;;;;;11.82;1.40;;;7.50;99.90;;;;;;5043926;28;20413;-55
2022/12/27 10:27:33;;;;;;;13.88;1.65;;;7.50;99.90;;;;;;5053071;28;20119;-51
2022/12/27 10:30:02;;;;;;;11.52;1.90;;;7.50;99.90;;;;;;5042896;28;20069;-52
2022/12/27 10:32:28;;;;;;;8.32;2.00;;;7.60;99.90;;;;;;5034478;28;20037;-53
2022/12/27 10:34:55;;;;;;;9.20;1.63;;;7.60;99.90;;;;;;5050130;28;20056;-53
2022/12/27 10:37:22;;;;;;;11.20;2.28;;;7.60;99.90;;;;;;5054828;28;20362;-50
2022/12/27 10:39:49;;;;;;;13.40;1.98;;;7.60;99.90;;;;;;5053742;28;20431;-47
2022/12/27 10:42:15;;;;;;;8.48;1.83;;;7.70;99.90;;;;;;5054505;28;20041;-51
2022/12/27 10:44:42;;;;;;;11.05;1.40;;;7.80;99.90;;;;;;5052671;28;20032;-52
2022/12/27 10:47:09;;;;;;;10.93;1.85;;;7.80;99.90;;;;;;5053083;28;20539;-48
2022/12/27 10:49:36;;;;;;;9.55;1.40;;;7.80;99.90;;;;;;5044299;28;20054;-48
2022/12/27 10:52:02;;;;;;;13.00;1.70;;;7.90;99.90;;;;;;5053349;28;20099;-53
2022/12/27 10:54:29;;;;;;;9.50;1.35;;;8.00;99.90;;;;;;5053383;28;20029;-51
2022/12/27 10:56:56;;;;;;;11.63;1.70;;;8.00;99.90;;;;;;5051866;28;20053;-52
2022/12/27 10:59:23;;;;;;;10.60;2.10;;;8.10;99.90;;;;;;5054268;28;20087;-48
2022/12/27 11:01:50;;;;;;;11.88;1.80;;;8.20;99.90;;;;;;5049582;28;20435;-47
2022/12/27 11:04:17;;;;;;;14.55;2.28;;;8.20;99.90;;;;;;5041018;28;20492;-49
2022/12/27 11:06:47;;;;;;;11.27;1.60;;;8.30;99.90;;;;;;5034787;28;20045;-53
2022/12/27 11:09:13;;;;;;;10.98;2.08;;;8.30;99.90;;;;;;5054261;28;20095;-51
2022/12/27 11:11:40;;;;;;;8.20;1.55;;;8.40;99.90;;;;;;5053876;28;20451;-49
2022/12/27 11:14:07;;;;;;;7.80;1.60;;;8.40;99.90;;;;;;5053186;28;20120;-48
2022/12/27 11:16:33;;;;;;;12.63;1.85;;;8.40;99.90;;;;;;5053994;28;20090;-49
2022/12/27 11:19:00;;;;;;;8.32;1.55;;;8.40;99.90;;;;;;5053234;28;20399;-48
2022/12/27 11:21:27;;;;;;;8.57;2.30;;;8.40;99.90;;;;;;5054014;28;20045;-48
2022/12/27 11:23:54;;;;;;;7.57;1.40;;;8.40;99.90;;;;;;5053323;28;20045;-50
2022/12/27 11:26:21;;;;;;;11.73;1.92;;;8.50;99.90;;;;;;5053867;28;20045;-52
2022/12/27 11:28:49;;;;;;;12.23;2.08;;;8.50;99.90;;;;;;5053458;28;20072;-53
2022/12/27 11:31:16;;;;;;;14.73;1.83;;;8.50;99.90;;;;;;5053605;28;20049;-52
2022/12/27 11:33:43;;;;;;;10.45;1.80;;;8.60;99.90;;;;;;5052669;28;20399;-48
2022/12/27 11:36:10;;;;;;;11.48;2.05;;;8.60;99.90;;;;;;5053400;28;20040;-49
2022/12/27 11:38:36;;;;;;;13.77;2.63;;;8.70;99.90;;;;;;5051466;28;20876;-50
2022/12/27 11:41:03;;;;;;;11.10;2.53;;;8.70;99.90;;;;;;5053242;28;20041;-52
2022/12/27 11:43:30;;;;;;;10.75;1.92;;;8.70;99.90;;;;;;5046106;28;20518;-50
2022/12/27 11:45:56;;;;;;;13.35;2.38;;;8.70;99.90;;;;;;5051689;28;20049;-50
2022/12/27 11:48:23;;;;;;;7.40;1.75;;;8.70;99.90;;;;;;5053510;28;20073;-50
2022/12/27 11:50:50;;;;;;;12.75;1.92;;;8.70;99.90;;;;;;5052422;28;20045;-52
2022/12/27 11:53:17;;;;;;;14.05;1.92;;;8.70;99.90;;;;;;5053508;28;20102;-52
2022/12/27 11:55:43;;;;;;;12.95;2.13;;;8.80;99.90;;;;;;5053143;28;20087;-51
2022/12/27 11:58:10;;;;;;;9.88;1.80;;;8.80;99.90;;;;;;5051459;28;20546;-50
2022/12/27 12:00:37;;;;;;;12.25;2.25;;;8.80;99.90;;;;;;5033808;28;20045;-49
2022/12/27 12:03:04;;;;;;;11.75;2.25;;;8.80;99.90;;;;;;5048229;28;20080;-50
2022/12/27 12:05:30;;;;;;;12.27;2.17;;;8.80;99.90;;;;;;5034209;28;20136;-49
2022/12/27 12:07:57;;;;;;;9.45;1.83;;;8.80;99.90;;;;;;5036825;28;20106;-48
2022/12/27 12:10:24;;;;;;;12.50;2.00;;;8.80;99.90;;;;;;5052942;28;20056;-47
2022/12/27 12:12:51;;;;;;;9.45;2.33;;;8.80;99.90;;;;;;5053089;28;20163;-52
2022/12/27 12:15:20;;;;;;;12.45;1.95;;;8.80;99.90;;;;;;5051639;28;20041;-50
2022/12/27 12:17:47;;;;;;;13.32;1.83;;;8.90;99.90;;;;;;5052973;28;20044;-51
2022/12/27 12:20:14;;;;;;;11.70;1.80;;;8.90;99.90;;;;;;5052950;28;20041;-49
2022/12/27 12:22:40;;;;;;;13.05;2.40;;;8.90;99.90;;;;;;5052892;28;20102;-49
2022/12/27 12:25:07;;;;;;;14.00;2.00;;;9.00;99.90;;;;;;5053088;28;20048;-47
2022/12/27 12:27:34;;;;;;;11.10;3.58;;;9.00;99.90;;;;;;5051700;28;20056;-46
2022/12/27 12:30:01;;;;;;;7.00;1.67;;;9.10;99.90;;;;;;5052639;28;20614;-50
2022/12/27 12:32:28;;;;;;;12.70;1.98;;;9.10;99.90;;;;;;5051820;28;20036;-51
2022/12/27 12:34:54;;;;;;;7.95;1.75;;;9.20;99.90;;;;;;5052545;28;20141;-53
2022/12/27 12:37:21;;;;;;;12.93;2.20;;;9.30;99.90;;;;;;5052777;28;20037;-50
2022/12/27 12:39:48;;;;;;;8.77;1.70;;;9.40;99.90;;;;;;5051671;28;20044;-51
2022/12/27 12:42:17;;;;;;;11.02;2.53;;;9.40;99.90;;;;;;5052897;28;20124;-49
2022/12/27 12:44:44;;;;;;;9.98;2.20;;;9.40;99.90;;;;;;5050783;28;20052;-47
2022/12/27 12:47:10;;;;;;;8.25;1.85;;;9.40;99.90;;;;;;5052528;28;20045;-48
2022/12/27 12:49:37;;;;;;;11.55;2.22;;;9.40;99.90;;;;;;5050720;28;20511;-51
2022/12/27 12:52:04;;;;;;;7.50;1.52;;;9.40;99.90;;;;;;5052619;28;20484;-52
2022/12/27 12:54:31;;;;;;;11.27;2.05;;;9.50;99.90;;;;;;5052315;28;20091;-52
2022/12/27 12:56:58;;;;;;;11.25;1.88;;;9.50;99.90;;;;;;5052371;28;20391;-53
2022/12/27 12:59:24;;;;;;;11.80;2.20;;;9.50;99.90;;;;;;5051893;28;20067;-52
2022/12/27 13:01:51;;;;;;;12.32;2.17;;;9.60;99.90;;;;;;5052332;28;20484;-52
2022/12/27 13:04:18;;;;;;;11.88;2.10;;;9.60;99.90;;;;;;5052540;28;20515;-49
2022/12/27 13:06:45;;;;;;;11.05;1.90;;;9.60;99.90;;;;;;5052554;28;20046;-49
2022/12/27 13:09:12;;;;;;;10.50;2.20;;;9.70;99.90;;;;;;5052217;28;20490;-49
2022/12/27 13:11:39;;;;;;;13.43;2.03;;;9.60;99.90;;;;;;5052404;28;20456;-48
2022/12/27 13:14:05;;;;;;;9.10;1.80;;;9.60;99.90;;;;;;5052500;28;20041;-51
2022/12/27 13:16:32;;;;;;;9.40;2.50;;;9.60;99.90;;;;;;5052268;28;20472;-50
2022/12/27 13:18:59;;;;;;;12.95;2.75;;;9.60;99.90;;;;;;5053012;28;20041;-50
2022/12/27 13:21:25;;;;;;;8.43;1.92;;;9.60;99.90;;;;;;5054498;28;20415;-53
2022/12/27 13:23:52;;;;;;;12.60;2.20;;;9.60;99.90;;;;;;5055410;28;20041;-51
2022/12/27 13:26:19;;;;;;;14.35;2.65;;;9.60;99.90;;;;;;5054492;28;20492;-51
2022/12/27 13:28:46;;;;;;;13.85;2.17;;;9.60;99.90;;;;;;5043046;28;20430;-50
2022/12/27 13:31:13;;;;;;;11.75;2.20;;;9.60;99.90;;;;;;5056012;28;20530;-52
2022/12/27 13:33:39;;;;;;;9.88;2.00;;;9.60;99.90;;;;;;5054897;28;20063;-52
2022/12/27 13:36:06;;;;;;;12.90;2.08;;;9.60;99.90;;;;;;5055649;28;20040;-52
2022/12/27 13:38:33;;;;;;;9.65;2.10;;;9.60;99.90;;;;;;5054971;28;20428;-49
2022/12/27 13:41:00;;;;;;;9.38;2.00;;;9.60;99.90;;;;;;5055243;28;20052;-52
2022/12/27 13:43:26;;;;;;;10.55;2.33;;;9.70;99.90;;;;;;5043637;28;20053;-50
2022/12/27 13:45:53;;;;;;;12.05;2.65;;;9.70;99.90;;;;;;5053838;28;20466;-47
2022/12/27 13:48:20;;;;;;;11.63;2.05;;;9.80;99.90;;;;;;5055734;28;20044;-50
2022/12/27 13:50:47;;;;;;;12.18;2.53;;;9.80;99.90;;;;;;5055760;28;20065;-52
2022/12/27 13:53:14;;;;;;;11.85;1.73;;;9.80;99.90;;;;;;5053488;28;20044;-48
2022/12/27 13:55:40;;;;;;;12.02;2.13;;;9.80;99.90;;;;;;5036203;28;20385;-49
2022/12/27 13:58:07;;;;;;;10.07;2.30;;;9.90;99.90;;;;;;5054939;28;20047;-52
2022/12/27 14:00:35;;;;;;;11.60;2.22;;;9.90;99.90;;;;;;5055337;28;20040;-47
2022/12/27 14:03:01;;;;;;;10.40;1.95;;;10.00;99.90;;;;;;5054671;28;20373;-49
2022/12/27 14:05:28;;;;;;;8.48;1.83;;;10.00;99.90;;;;;;5055388;28;20037;-48
2022/12/27 14:07:55;;;;;;;12.00;2.15;;;10.10;99.90;;;;;;5055372;28;20044;-50
2022/12/27 14:10:22;;;;;;;11.95;2.20;;;10.10;99.90;;;;;;5052392;28;20052;-54
2022/12/27 14:12:49;;;;;;;12.75;2.33;;;10.10;99.90;;;;;;5053847;28;20044;-53
2022/12/27 14:15:16;;;;;;;9.25;1.92;;;10.10;99.90;;;;;;5054818;28;20084;-47
2022/12/27 14:17:42;;;;;;;18.10;2.60;;;10.10;99.90;;;;;;5053977;28;20446;-48
2022/12/27 14:20:09;;;;;;;9.25;2.17;;;10.10;99.90;;;;;;5055033;28;20037;-47
2022/12/27 14:22:36;;;;;;;10.75;1.70;;;10.10;99.90;;;;;;5054217;28;20048;-48
2022/12/27 14:25:02;;;;;;;15.30;2.50;;;10.10;99.90;;;;;;5054928;28;20044;-51